Time;durP1;ratioP1;P1;durP2;ratioP2;P2;SDS_P1;SDS_P2;PMS_P1;PMS_P2;Temp;Humidity;BMP_temperature;BMP_pressure;BME280_temperature;BME280_humidity;BME280_pressure;Samples;Min_cycle;Max_cycle;Signal;HPM_P1;HPM_P2
2023/09/28 00:00:39;;;;;;;132.88;127.00;;;;;;;22.08;56.94;101207.44;4954131;28;20075;-67
2023/09/28 00:03:09;;;;;;;131.10;125.18;;;;;;;22.08;56.32;101218.44;4953349;28;20055;-68
2023/09/28 00:05:35;;;;;;;130.95;125.15;;;;;;;22.09;56.42;101219.25;4953978;28;20120;-65
2023/09/28 00:08:02;;;;;;;131.05;125.05;;;;;;;22.09;56.68;101224.75;4953487;28;20039;-67
2023/09/28 00:10:27;;;;;;;126.78;120.72;;;;;;;22.09;56.84;101227.50;4953951;28;20451;-68
2023/09/28 00:12:54;;;;;;;127.90;122.32;;;;;;;22.09;56.79;101227.50;4953480;28;20066;-67
2023/09/28 00:15:21;;;;;;;128.38;122.75;;;;;;;22.09;56.83;101227.50;4953762;28;20042;-67
2023/09/28 00:17:51;;;;;;;128.65;122.95;;;;;;;22.09;56.51;101233.03;4953001;28;20042;-68
2023/09/28 00:20:17;;;;;;;127.90;122.32;;;;;;;22.09;56.72;101236.56;4953721;28;20054;-68
2023/09/28 00:22:48;;;;;;;129.35;123.70;;;;;;;22.08;56.61;101232.22;4953768;28;20041;-68
2023/09/28 00:25:16;;;;;;;126.95;121.50;;;;;;;22.08;56.38;101240.47;4953636;28;20357;-68
2023/09/28 00:27:44;;;;;;;128.20;122.63;;;;;;;22.08;56.92;101245.16;4953923;28;20039;-68
2023/09/28 00:30:13;;;;;;;132.15;126.45;;;;;;;22.07;56.55;101238.00;4953306;28;20382;-67
2023/09/28 00:32:39;;;;;;;128.80;123.20;;;;;;;22.06;56.62;101236.41;4953658;28;20031;-68
2023/09/28 00:35:06;;;;;;;134.63;128.82;;;;;;;22.06;56.65;101239.94;4953277;28;20065;-66
2023/09/28 00:37:32;;;;;;;128.32;122.75;;;;;;;22.06;56.87;101244.66;4971626;28;20042;-67
2023/09/28 00:39:58;;;;;;;128.55;122.75;;;;;;;22.04;56.69;101243.00;4971257;28;20081;-66
2023/09/28 00:42:24;;;;;;;127.00;121.50;;;;;;;22.05;56.38;101243.84;4972415;28;20035;-68
2023/09/28 00:44:51;;;;;;;128.80;123.07;;;;;;;22.04;56.63;101239.44;4971898;28;20030;-68
2023/09/28 00:47:18;;;;;;;126.85;121.25;;;;;;;22.04;56.84;101236.69;4972030;28;20464;-68
2023/09/28 00:49:44;;;;;;;127.82;122.13;;;;;;;22.02;56.47;101236.19;4972225;28;20031;-67
2023/09/28 00:52:11;;;;;;;128.32;122.63;;;;;;;22.02;56.69;101252.69;4972277;28;20073;-67
2023/09/28 00:54:38;;;;;;;127.00;121.30;;;;;;;21.99;56.66;101245.06;4972609;28;20035;-67
2023/09/28 00:57:06;;;;;;;133.85;127.65;;;;;;;21.99;56.77;101251.34;4972156;28;20031;-67
2023/09/28 00:59:32;;;;;;;130.10;124.10;;;;;;;21.98;56.53;101247.00;4972391;28;20038;-67
2023/09/28 01:01:57;;;;;;;129.93;124.13;;;;;;;21.99;56.65;101250.56;4971776;28;20286;-67
2023/09/28 01:04:22;;;;;;;131.00;125.03;;;;;;;21.97;56.43;101248.13;4972065;28;20053;-67
2023/09/28 01:06:48;;;;;;;127.20;121.70;;;;;;;21.96;56.91;101249.22;4972002;28;20549;-68
2023/09/28 01:09:15;;;;;;;128.65;123.05;;;;;;;21.96;56.83;101259.44;4972378;28;20035;-67
2023/09/28 01:11:41;;;;;;;130.48;124.57;;;;;;;21.95;57.06;101257.81;4970858;28;20118;-67
2023/09/28 01:14:07;;;;;;;127.90;122.35;;;;;;;21.94;57.07;101256.16;4971899;28;20126;-67
2023/09/28 01:16:33;;;;;;;128.00;122.10;;;;;;;21.93;57.10;101251.78;4972245;28;20030;-67
2023/09/28 01:18:58;;;;;;;127.15;121.43;;;;;;;21.92;56.92;101252.91;4971917;28;20039;-67
2023/09/28 01:21:24;;;;;;;128.88;123.07;;;;;;;21.90;56.79;101247.72;4972057;28;20085;-67
2023/09/28 01:23:50;;;;;;;132.23;126.47;;;;;;;21.91;56.46;101249.34;4972175;28;20038;-68
2023/09/28 01:26:16;;;;;;;127.70;121.90;;;;;;;21.89;56.95;101248.00;4971660;28;20428;-68
2023/09/28 01:28:42;;;;;;;126.80;121.07;;;;;;;21.88;57.07;101251.91;4970235;28;20134;-67
2023/09/28 01:31:07;;;;;;;132.48;126.68;;;;;;;21.88;57.04;101254.66;4956289;28;20094;-67
2023/09/28 01:33:33;;;;;;;126.68;121.00;;;;;;;21.87;56.77;101261.25;4956397;28;20122;-67
2023/09/28 01:35:58;;;;;;;125.80;120.35;;;;;;;21.86;56.86;101263.19;4956753;28;20041;-67
2023/09/28 01:38:34;;;;;;;131.02;125.15;;;;;;;21.84;57.10;101257.19;4956569;28;20027;-67
2023/09/28 01:41:00;;;;;;;127.75;122.07;;;;;;;21.82;57.05;101253.91;4956536;28;20539;-67
2023/09/28 01:43:25;;;;;;;123.90;118.53;;;;;;;21.80;56.57;101257.00;4956407;28;20030;-67
2023/09/28 01:45:51;;;;;;;125.88;120.47;;;;;;;21.80;57.14;101258.94;4956626;28;20039;-67
2023/09/28 01:48:16;;;;;;;125.50;119.93;;;;;;;21.78;57.07;101259.22;4956351;28;20130;-67
2023/09/28 01:50:41;;;;;;;126.22;120.45;;;;;;;21.78;56.87;101269.41;4956673;28;20399;-68
2023/09/28 01:53:07;;;;;;;128.73;123.00;;;;;;;21.77;56.86;101265.03;4955683;28;20119;-67
2023/09/28 01:55:32;;;;;;;126.13;120.45;;;;;;;21.77;56.87;101278.78;4956541;28;20031;-67
2023/09/28 01:57:59;;;;;;;126.55;120.75;;;;;;;21.74;57.05;101280.19;4956562;28;20383;-67
2023/09/28 02:00:25;;;;;;;126.38;120.57;;;;;;;21.75;57.14;101283.78;4955641;28;20039;-67
2023/09/28 02:02:55;;;;;;;126.20;120.72;;;;;;;21.73;57.18;101286.81;4956388;28;20070;-67
2023/09/28 02:05:32;;;;;;;131.82;125.80;;;;;;;21.72;56.79;101287.97;4955971;28;20408;-67
2023/09/28 02:07:57;;;;;;;127.82;122.22;;;;;;;21.72;57.09;101290.72;4956491;28;20039;-67
2023/09/28 02:10:23;;;;;;;129.23;123.60;;;;;;;21.71;57.14;101285.50;4955640;28;20042;-67
2023/09/28 02:12:48;;;;;;;126.13;120.28;;;;;;;21.68;57.15;101275.13;4955866;28;20039;-68
2023/09/28 02:15:16;;;;;;;127.07;121.57;;;;;;;21.68;56.86;101292.44;4955642;28;20457;-67
2023/09/28 02:17:45;;;;;;;126.90;121.30;;;;;;;21.67;56.60;101300.97;4956103;28;20587;-67
2023/09/28 02:20:14;;;;;;;;;;;;;;;21.65;57.28;101292.22;4956011;28;20186;-66
2023/09/28 02:22:43;;;;;;;122.43;117.07;;;;;;;21.63;56.89;101292.53;4955847;28;20392;-67
2023/09/28 02:25:10;;;;;;;122.93;117.40;;;;;;;21.61;56.91;101295.56;4955667;28;20043;-67
2023/09/28 02:27:36;;;;;;;123.18;117.47;;;;;;;21.61;56.57;101300.25;4955463;28;20046;-67
2023/09/28 02:30:04;;;;;;;122.45;117.05;;;;;;;21.58;57.26;101290.69;4955940;28;20464;-68
2023/09/28 02:32:29;;;;;;;125.47;119.68;;;;;;;21.56;57.29;101298.41;4955390;28;20031;-67
2023/09/28 02:34:54;;;;;;;123.78;118.40;;;;;;;21.56;57.11;101298.41;4955605;28;20045;-67
2023/09/28 02:37:20;;;;;;;123.53;118.07;;;;;;;21.55;56.79;101291.28;4973316;28;20118;-66
2023/09/28 02:39:46;;;;;;;126.53;121.03;;;;;;;21.53;57.19;101299.03;4973052;28;20486;-66
2023/09/28 02:42:11;;;;;;;126.15;120.65;;;;;;;21.53;57.36;101298.22;4974177;28;20038;-67
2023/09/28 02:44:37;;;;;;;127.07;121.63;;;;;;;21.52;56.99;101291.91;4974599;28;20090;-67
2023/09/28 02:47:05;;;;;;;127.47;121.68;;;;;;;21.51;56.90;101298.50;4974579;28;20030;-67
2023/09/28 02:49:33;;;;;;;125.15;119.72;;;;;;;21.49;57.10;101303.47;4973903;28;20031;-67
2023/09/28 02:52:00;;;;;;;125.43;120.00;;;;;;;21.48;57.23;101303.81;4973370;28;20078;-67
2023/09/28 02:54:26;;;;;;;122.72;117.22;;;;;;;21.47;57.30;101308.50;4973868;28;20031;-66
2023/09/28 02:56:53;;;;;;;128.45;122.75;;;;;;;21.47;57.32;101304.91;4974071;28;20094;-67
2023/09/28 02:59:22;;;;;;;125.95;120.40;;;;;;;21.45;57.07;101309.91;4973817;28;20035;-66
2023/09/28 03:01:48;;;;;;;122.82;117.50;;;;;;;21.44;57.06;101317.31;4973981;28;20054;-66
2023/09/28 03:04:15;;;;;;;126.05;120.60;;;;;;;21.43;56.95;101320.38;4972820;28;20053;-67
2023/09/28 03:06:40;;;;;;;123.13;117.78;;;;;;;21.42;57.08;101318.75;4974151;28;20042;-67
2023/09/28 03:09:08;;;;;;;125.10;119.50;;;;;;;21.40;57.22;101316.31;4969569;28;20031;-68
2023/09/28 03:11:34;;;;;;;123.32;117.60;;;;;;;21.38;57.34;101327.59;4954734;28;20031;-68
2023/09/28 03:14:00;;;;;;;125.65;120.10;;;;;;;21.37;57.40;101327.88;4954863;28;20031;-67
2023/09/28 03:16:26;;;;;;;124.53;118.82;;;;;;;21.37;57.34;101330.63;4964908;28;20459;-67
2023/09/28 03:18:52;;;;;;;122.90;117.53;;;;;;;21.35;56.86;101333.66;4973894;28;20042;-67
2023/09/28 03:21:18;;;;;;;124.32;118.85;;;;;;;21.34;57.05;101331.22;4954299;28;20031;-67
2023/09/28 03:23:45;;;;;;;123.85;118.38;;;;;;;21.33;57.38;101335.09;4954956;28;20042;-67
2023/09/28 03:26:11;;;;;;;119.75;114.55;;;;;;;21.32;56.88;101342.50;4953410;28;20405;-68
2023/09/28 03:28:36;;;;;;;124.10;118.60;;;;;;;21.31;57.10;101349.09;4953934;28;20039;-68
2023/09/28 03:31:02;;;;;;;123.82;118.18;;;;;;;21.30;57.42;101354.94;4954803;28;20468;-67
2023/09/28 03:33:28;;;;;;;129.07;123.28;;;;;;;21.30;57.08;101358.47;4953999;28;20038;-67
2023/09/28 03:35:55;;;;;;;128.25;122.57;;;;;;;21.28;57.44;101363.47;4954756;28;20027;-68
2023/09/28 03:38:20;;;;;;;127.43;121.63;;;;;;;21.27;56.90;101370.06;4954244;28;20121;-68
2023/09/28 03:40:46;;;;;;;125.00;119.60;;;;;;;21.27;57.11;101369.25;4954327;28;20140;-68
2023/09/28 03:43:11;;;;;;;125.22;119.80;;;;;;;21.25;57.32;101364.06;4954495;28;20031;-67
2023/09/28 03:45:37;;;;;;;124.82;119.13;;;;;;;21.24;57.28;101364.34;4952534;28;20103;-68
2023/09/28 03:48:02;;;;;;;124.43;118.95;;;;;;;21.22;57.39;101356.44;4953235;28;20454;-67
2023/09/28 03:50:28;;;;;;;126.55;120.95;;;;;;;21.22;57.07;101366.56;4953728;28;20051;-67
2023/09/28 03:52:53;;;;;;;125.07;119.57;;;;;;;21.21;57.52;101378.69;4954176;28;20053;-67
2023/09/28 03:55:21;;;;;;;120.25;115.05;;;;;;;21.20;57.29;101377.88;4954018;28;20137;-70
2023/09/28 03:57:48;;;;;;;123.80;118.30;;;;;;;21.18;56.97;101378.16;4954383;28;20034;-67
2023/09/28 04:00:15;;;;;;;122.63;117.13;;;;;;;21.18;57.02;101380.09;4962352;28;20034;-68
2023/09/28 04:02:45;;;;;;;120.00;114.60;;;;;;;21.16;57.19;101380.38;4972646;28;20061;-67
2023/09/28 04:05:10;;;;;;;119.28;113.97;;;;;;;21.15;57.49;101377.97;4954282;28;20480;-67
2023/09/28 04:07:36;;;;;;;122.00;116.60;;;;;;;21.14;57.46;101379.06;4952310;28;20043;-67
2023/09/28 04:10:03;;;;;;;120.10;114.85;;;;;;;21.13;57.26;101380.19;4954217;28;20479;-67
2023/09/28 04:12:29;;;;;;;119.20;113.82;;;;;;;21.12;57.40;101378.56;4952648;28;20114;-67
2023/09/28 04:14:54;;;;;;;123.38;117.80;;;;;;;21.10;57.43;101381.59;4953939;28;20491;-68
2023/09/28 04:17:20;;;;;;;119.03;113.55;;;;;;;21.09;57.22;101382.72;4953981;28;20384;-68
2023/09/28 04:19:46;;;;;;;122.07;116.55;;;;;;;21.09;57.46;101376.38;4953406;28;20031;-67
2023/09/28 04:22:12;;;;;;;120.57;115.35;;;;;;;21.07;57.44;101382.19;4964057;28;20089;-68
2023/09/28 04:24:37;;;;;;;121.20;114.90;;;;;;;21.06;57.06;101390.72;4972356;28;20097;-67
2023/09/28 04:27:02;;;;;;;115.10;110.00;;;;;;;21.04;57.58;101391.03;4972052;28;20439;-66
2023/09/28 04:29:28;;;;;;;114.28;109.18;;;;;;;21.03;57.54;101399.56;4972138;28;20045;-67
2023/09/28 04:31:56;;;;;;;116.57;111.15;;;;;;;21.03;57.33;101405.88;4972810;28;20038;-68
2023/09/28 04:34:21;;;;;;;118.35;113.05;;;;;;;21.01;57.07;101404.53;4972600;28;20038;-68
2023/09/28 04:36:49;;;;;;;119.55;114.32;;;;;;;21.00;57.25;101408.41;4972017;28;20081;-66
2023/09/28 04:39:16;;;;;;;117.28;112.03;;;;;;;20.99;57.50;101418.59;4972499;28;20049;-66
2023/09/28 04:41:43;;;;;;;117.07;111.88;;;;;;;20.98;57.09;101421.63;4972169;28;20027;-66
2023/09/28 04:44:09;;;;;;;117.20;111.97;;;;;;;20.94;57.61;101422.22;4972746;28;20131;-67
2023/09/28 04:46:35;;;;;;;119.18;113.78;;;;;;;20.94;57.38;101419.47;4971982;28;20027;-66
2023/09/28 04:49:01;;;;;;;120.53;115.07;;;;;;;20.93;57.40;101420.56;4968408;28;20035;-66
2023/09/28 04:51:26;;;;;;;117.18;111.80;;;;;;;20.92;57.06;101421.69;4952779;28;20174;-67
2023/09/28 04:53:52;;;;;;;119.95;114.45;;;;;;;20.91;57.62;101438.44;4953775;28;20114;-67
2023/09/28 04:56:17;;;;;;;114.82;109.80;;;;;;;20.90;57.35;101436.81;4953734;28;20043;-67
2023/09/28 04:58:43;;;;;;;118.90;113.50;;;;;;;20.89;57.09;101446.16;4953216;28;20035;-66
2023/09/28 05:01:09;;;;;;;120.38;115.07;;;;;;;20.87;57.54;101448.41;4953428;28;20035;-66
2023/09/28 05:03:35;;;;;;;118.50;113.22;;;;;;;20.85;57.23;101443.19;4955540;28;20051;-67
2023/09/28 05:06:01;;;;;;;118.60;113.30;;;;;;;20.84;57.63;101444.31;4957022;28;20041;-67
2023/09/28 05:08:27;;;;;;;115.50;110.30;;;;;;;20.83;57.48;101447.34;4956882;28;20039;-66
2023/09/28 05:10:53;;;;;;;117.95;112.53;;;;;;;20.82;57.56;101451.22;4956869;28;20118;-66
2023/09/28 05:13:20;;;;;;;116.97;111.68;;;;;;;20.81;57.63;101450.38;4957110;28;20038;-66
2023/09/28 05:15:46;;;;;;;119.88;114.38;;;;;;;20.79;57.62;101458.13;4956743;28;20039;-66
2023/09/28 05:18:11;;;;;;;119.43;114.03;;;;;;;20.79;57.60;101463.63;4957385;28;20027;-66
2023/09/28 05:20:37;;;;;;;118.00;112.65;;;;;;;20.79;57.55;101468.25;4956225;28;20596;-67
2023/09/28 05:23:03;;;;;;;118.43;113.10;;;;;;;20.77;57.25;101473.25;4975690;28;20398;-66
2023/09/28 05:25:29;;;;;;;117.47;112.28;;;;;;;20.74;57.56;101467.22;4975905;28;20031;-66
2023/09/28 05:27:54;;;;;;;115.20;110.00;;;;;;;20.73;57.17;101471.06;4974936;28;20038;-67
2023/09/28 05:30:20;;;;;;;117.95;112.65;;;;;;;20.72;57.17;101465.88;4975494;28;20146;-66
2023/09/28 05:32:46;;;;;;;120.05;114.03;;;;;;;20.72;57.55;101463.97;4973968;28;20034;-66
2023/09/28 05:35:11;;;;;;;118.70;112.63;;;;;;;20.70;57.66;101470.84;4974195;28;20136;-67
2023/09/28 05:37:36;;;;;;;114.68;109.60;;;;;;;20.70;57.13;101473.59;4975342;28;20494;-67
2023/09/28 05:40:04;;;;;;;115.95;110.55;;;;;;;20.67;57.61;101488.72;4971320;28;20118;-66
2023/09/28 05:42:30;;;;;;;119.10;113.63;;;;;;;20.66;57.43;101486.25;4955342;28;20108;-66
2023/09/28 05:44:55;;;;;;;115.03;109.70;;;;;;;20.65;57.55;101485.44;4956193;28;20298;-66
2023/09/28 05:47:21;;;;;;;117.30;112.10;;;;;;;20.63;57.61;101493.16;4956398;28;20118;-66
2023/09/28 05:49:49;;;;;;;115.90;110.60;;;;;;;20.63;57.17;101503.31;4955627;28;20071;-67
2023/09/28 05:52:14;;;;;;;119.22;113.55;;;;;;;20.61;57.17;101503.59;4956645;28;20387;-67
2023/09/28 05:54:40;;;;;;;116.70;111.03;;;;;;;20.60;57.17;101498.44;4956225;28;20602;-67
2023/09/28 05:57:05;;;;;;;115.97;110.65;;;;;;;20.58;57.17;101498.69;4956428;28;20031;-66
2023/09/28 05:59:30;;;;;;;115.30;110.03;;;;;;;20.58;57.25;101497.91;4956003;28;20035;-66
2023/09/28 06:01:56;;;;;;;117.28;111.82;;;;;;;20.56;57.17;101500.09;4955673;28;20031;-66
2023/09/28 06:04:21;;;;;;;118.10;112.80;;;;;;;20.55;57.12;101490.25;4955759;28;20082;-66
2023/09/28 06:06:50;;;;;;;115.93;110.72;;;;;;;20.53;57.65;101487.75;4955988;28;20027;-66
2023/09/28 06:09:16;;;;;;;;;;;;;;;20.51;57.53;101490.81;4956672;28;20035;-67
2023/09/28 06:11:41;;;;;;;109.55;104.45;;;;;;;20.49;57.29;101500.44;4954600;28;19938;-66
2023/09/28 06:14:08;;;;;;;111.18;106.10;;;;;;;20.47;57.15;101503.47;4953976;28;20171;-66
2023/09/28 06:16:36;;;;;;;114.03;109.05;;;;;;;20.46;57.64;101501.84;4956205;28;20043;-67
2023/09/28 06:19:01;;;;;;;112.93;107.45;;;;;;;20.45;57.60;101502.13;4955376;28;20122;-67
2023/09/28 06:21:27;;;;;;;114.13;108.50;;;;;;;20.44;57.25;101514.22;4955851;28;20162;-67
2023/09/28 06:23:52;;;;;;;114.88;109.68;;;;;;;20.43;57.62;101531.78;4955428;28;20110;-67
2023/09/28 06:26:18;;;;;;;113.10;107.95;;;;;;;20.41;57.71;101534.81;4955767;28;20035;-66
2023/09/28 06:28:43;;;;;;;115.00;109.18;;;;;;;20.42;57.50;101524.66;4955451;28;20075;-67
2023/09/28 06:31:08;;;;;;;114.43;109.10;;;;;;;20.39;57.75;101531.56;4955683;28;20122;-66
2023/09/28 06:33:34;;;;;;;113.18;107.05;;;;;;;20.39;57.55;101536.22;4955415;28;20035;-66
2023/09/28 06:35:59;;;;;;;112.13;106.70;;;;;;;20.38;57.26;101540.06;4955378;28;20500;-67
2023/09/28 06:38:25;;;;;;;113.45;108.13;;;;;;;20.36;57.78;101537.63;4955624;28;20031;-68
2023/09/28 06:40:50;;;;;;;112.47;107.28;;;;;;;20.36;57.50;101537.63;4955408;28;20443;-67
2023/09/28 06:43:16;;;;;;;110.80;103.50;;;;;;;20.36;57.56;101547.75;4955243;28;20042;-67
2023/09/28 06:45:44;;;;;;;110.68;104.63;;;;;;;20.34;57.15;101559.03;4955177;28;20042;-70
2023/09/28 06:48:10;;;;;;;105.80;100.80;;;;;;;20.33;57.53;101568.34;4955723;28;20125;-67
2023/09/28 06:50:39;;;;;;;115.97;106.78;;;;;;;20.31;57.69;101565.91;4955445;28;20156;-67
2023/09/28 06:53:05;;;;;;;111.53;103.85;;;;;;;20.29;57.47;101570.88;4954814;28;20031;-67
2023/09/28 06:55:30;;;;;;;104.57;98.45;;;;;;;20.28;57.71;101577.44;4955357;28;20063;-67
2023/09/28 06:57:56;;;;;;;107.72;101.75;;;;;;;20.27;57.77;101575.00;4954580;28;20070;-67
2023/09/28 07:00:22;;;;;;;107.65;102.50;;;;;;;20.25;57.76;101564.31;4955027;28;20035;-68
2023/09/28 07:02:47;;;;;;;110.07;104.57;;;;;;;20.23;57.46;101566.53;4954869;28;20388;-66
2023/09/28 07:05:17;;;;;;;107.25;101.65;;;;;;;20.22;57.66;101558.59;4955116;28;20138;-67
2023/09/28 07:07:44;;;;;;;108.55;102.93;;;;;;;20.21;57.30;101559.69;4955337;28;20119;-68
2023/09/28 07:10:12;;;;;;;109.38;103.88;;;;;;;20.19;57.43;101576.44;4954548;28;20031;-67
2023/09/28 07:12:37;;;;;;;107.03;102.05;;;;;;;20.17;57.36;101564.94;4955202;28;20046;-66
2023/09/28 07:15:04;;;;;;;108.85;103.55;;;;;;;20.16;57.34;101559.72;4954264;28;20388;-67
2023/09/28 07:17:29;;;;;;;108.65;102.47;;;;;;;20.16;57.64;101563.31;4973689;28;20061;-67
2023/09/28 07:19:56;;;;;;;109.63;104.28;;;;;;;20.15;57.33;101569.88;4969316;28;20066;-66
2023/09/28 07:22:22;;;;;;;108.30;103.18;;;;;;;20.13;57.37;101574.84;4954999;28;20062;-66
2023/09/28 07:24:47;;;;;;;105.95;101.05;;;;;;;20.13;57.80;101587.72;4953902;28;20110;-68
2023/09/28 07:27:13;;;;;;;111.15;105.40;;;;;;;20.12;57.85;101575.13;4954702;28;20395;-66
2023/09/28 07:29:38;;;;;;;107.18;101.60;;;;;;;20.11;57.34;101574.31;4954800;28;20452;-67
2023/09/28 07:32:04;;;;;;;110.70;103.50;;;;;;;20.10;57.82;101584.44;4953661;28;20046;-67
2023/09/28 07:34:30;;;;;;;106.93;100.82;;;;;;;20.08;57.73;101596.81;4954704;28;20039;-67
2023/09/28 07:36:55;;;;;;;106.90;101.32;;;;;;;20.05;57.97;101595.47;4953688;28;20054;-67
2023/09/28 07:39:21;;;;;;;104.82;99.57;;;;;;;20.04;57.91;101591.09;4954438;28;20039;-67
2023/09/28 07:41:46;;;;;;;106.63;101.45;;;;;;;20.03;57.83;101591.38;4954639;28;20114;-67
2023/09/28 07:44:12;;;;;;;109.38;103.07;;;;;;;20.01;58.07;101588.94;4953961;28;20035;-67
2023/09/28 07:46:37;;;;;;;108.18;101.88;;;;;;;20.00;57.54;101590.03;4954275;28;20043;-67
2023/09/28 07:49:03;;;;;;;107.90;102.50;;;;;;;20.00;57.92;101598.25;4953873;28;20140;-67
2023/09/28 07:51:28;;;;;;;108.72;102.72;;;;;;;19.98;57.85;101594.16;4954466;28;20038;-68
2023/09/28 07:53:54;;;;;;;105.55;100.40;;;;;;;19.97;58.00;101607.06;4953943;28;20090;-67
2023/09/28 07:56:19;;;;;;;104.57;99.25;;;;;;;19.97;57.95;101603.50;4954384;28;20043;-66
2023/09/28 07:58:44;;;;;;;107.30;101.63;;;;;;;19.96;58.18;101597.19;4954486;28;20495;-67
2023/09/28 08:01:12;;;;;;;109.68;104.25;;;;;;;19.96;58.20;101613.66;4953929;28;20038;-68
2023/09/28 08:03:38;;;;;;;106.00;100.88;;;;;;;19.96;58.17;101615.56;4953927;28;20435;-68
2023/09/28 08:06:03;;;;;;;106.28;100.85;;;;;;;19.97;58.07;101614.47;4953926;28;20082;-67
2023/09/28 08:08:29;;;;;;;103.45;98.25;;;;;;;19.97;58.06;101611.72;4954379;28;20034;-67
2023/09/28 08:10:54;;;;;;;103.18;98.28;;;;;;;19.98;57.70;101619.69;4953721;28;20161;-67
2023/09/28 08:13:20;;;;;;;105.57;99.80;;;;;;;19.98;57.84;101619.69;4954181;28;20086;-67
2023/09/28 08:15:45;;;;;;;106.68;101.55;;;;;;;19.96;58.20;101627.38;4953568;28;20027;-68
2023/09/28 08:18:11;;;;;;;105.03;100.00;;;;;;;19.97;57.88;101625.44;4953730;28;20035;-67
2023/09/28 08:20:37;;;;;;;105.68;100.25;;;;;;;19.98;57.95;101627.91;4953534;28;20504;-66
2023/09/28 08:23:04;;;;;;;107.07;102.38;;;;;;;19.99;57.83;101635.00;4953751;28;20031;-66
2023/09/28 08:25:30;;;;;;;104.13;99.05;;;;;;;19.98;58.16;101641.63;4953639;28;20039;-68
2023/09/28 08:27:55;;;;;;;103.72;98.90;;;;;;;20.00;58.16;101642.13;4953674;28;20387;-71
2023/09/28 08:30:21;;;;;;;105.43;100.82;;;;;;;20.01;57.87;101641.03;4971277;28;20043;-67
2023/09/28 08:32:47;;;;;;;106.97;102.25;;;;;;;20.02;58.15;101656.38;4972083;28;20031;-67
2023/09/28 08:35:12;;;;;;;106.88;101.60;;;;;;;20.02;57.74;101639.91;4972430;28;20037;-67
2023/09/28 08:37:38;;;;;;;107.00;100.75;;;;;;;20.03;57.71;101644.31;4971371;28;20038;-67
2023/09/28 08:40:04;;;;;;;111.65;105.50;;;;;;;20.04;57.80;101654.19;4972175;28;20045;-66
2023/09/28 08:42:31;;;;;;;107.28;101.78;;;;;;;20.05;57.95;101646.75;4971991;28;20058;-68
2023/09/28 08:45:02;;;;;;;108.70;102.90;;;;;;;20.06;57.39;101651.97;4954354;28;20032;-68
2023/09/28 08:47:34;;;;;;;114.85;108.43;;;;;;;20.08;57.42;101654.41;4953222;28;20435;-67
2023/09/28 08:49:59;;;;;;;107.25;101.75;;;;;;;20.09;57.50;101667.03;4953266;28;20039;-67
2023/09/28 08:52:28;;;;;;;107.32;102.25;;;;;;;20.10;57.80;101658.50;4953513;28;20031;-68
2023/09/28 08:54:55;;;;;;;104.90;99.65;;;;;;;20.09;57.87;101656.06;4953280;28;20031;-67
2023/09/28 08:57:21;;;;;;;106.88;102.03;;;;;;;20.09;57.48;101656.06;4953291;28;20050;-68
2023/09/28 08:59:48;;;;;;;108.03;102.53;;;;;;;20.11;57.80;101651.13;4953486;28;20035;-69
2023/09/28 09:02:15;;;;;;;106.63;101.10;;;;;;;20.12;57.62;101650.00;4953503;28;20039;-67
2023/09/28 09:04:42;;;;;;;107.20;102.10;;;;;;;20.15;57.73;101663.16;4953129;28;20043;-68
2023/09/28 09:07:08;;;;;;;108.63;102.15;;;;;;;20.18;57.14;101651.59;4953059;28;20040;-67
2023/09/28 09:09:40;;;;;;;109.60;104.05;;;;;;;20.20;57.49;101660.38;4953364;28;20028;-68
2023/09/28 09:12:09;;;;;;;110.70;104.80;;;;;;;20.21;57.63;101659.28;4953148;28;20063;-67
2023/09/28 09:14:35;;;;;;;106.68;101.38;;;;;;;20.22;57.39;101665.59;4953413;28;20432;-68
2023/09/28 09:17:01;;;;;;;110.85;105.47;;;;;;;20.23;57.58;101662.53;4953308;28;20490;-66
2023/09/28 09:19:31;;;;;;;109.53;103.97;;;;;;;20.25;57.25;101659.50;4953374;28;20039;-66
2023/09/28 09:21:57;;;;;;;111.03;105.05;;;;;;;20.27;57.13;101666.34;4953422;28;20392;-68
2023/09/28 09:24:23;;;;;;;108.55;103.25;;;;;;;20.28;57.54;101658.94;4951639;28;20050;-67
2023/09/28 09:26:52;;;;;;;113.22;106.85;;;;;;;20.29;57.19;101661.41;4953218;28;20042;-68
2023/09/28 09:29:19;;;;;;;110.80;105.78;;;;;;;20.31;57.14;101659.22;4952904;28;20114;-66
2023/09/28 09:31:48;;;;;;;109.07;103.38;;;;;;;20.32;57.00;101658.09;4953494;28;20161;-67
2023/09/28 09:34:18;;;;;;;111.45;106.38;;;;;;;20.33;57.33;101664.38;4952851;28;20480;-66
2023/09/28 09:36:51;;;;;;;111.25;104.80;;;;;;;20.34;57.40;101668.78;4953409;28;20077;-66
2023/09/28 09:39:25;;;;;;;109.75;104.43;;;;;;;20.34;56.93;101673.47;4952940;28;20035;-66
2023/09/28 09:41:52;;;;;;;107.72;102.25;;;;;;;20.34;57.31;101671.53;4971736;28;20114;-68
2023/09/28 09:44:19;;;;;;;107.35;102.55;;;;;;;20.35;57.05;101670.41;4971748;28;20101;-69
2023/09/28 09:46:47;;;;;;;106.88;101.88;;;;;;;20.36;57.25;101666.59;4972027;28;20034;-66
2023/09/28 09:49:14;;;;;;;110.70;104.75;;;;;;;20.38;57.27;101671.75;4972523;28;20038;-66
2023/09/28 09:51:43;;;;;;;108.70;103.85;;;;;;;20.38;57.07;101675.31;4975221;28;20031;-66
2023/09/28 09:54:11;;;;;;;109.15;104.22;;;;;;;20.38;57.45;101658.84;4975687;28;20035;-68
2023/09/28 09:56:39;;;;;;;110.55;104.85;;;;;;;20.41;57.51;101660.22;4975934;28;20086;-66
2023/09/28 09:59:06;;;;;;;111.00;105.85;;;;;;;20.43;57.47;101663.50;4975160;28;20054;-68
2023/09/28 10:01:34;;;;;;;111.50;105.97;;;;;;;20.43;57.10;101664.31;4973913;28;20044;-67
2023/09/28 10:04:04;;;;;;;112.82;105.85;;;;;;;20.46;57.24;101666.50;4974884;28;20105;-67
2023/09/28 10:06:30;;;;;;;111.18;105.68;;;;;;;20.49;57.45;101662.38;4974567;28;20379;-66
2023/09/28 10:08:56;;;;;;;112.15;106.72;;;;;;;20.51;57.19;101658.22;4974903;28;20030;-66
2023/09/28 10:11:23;;;;;;;114.53;108.38;;;;;;;20.53;57.66;101652.44;4973804;28;20038;-66
2023/09/28 10:13:50;;;;;;;114.35;108.95;;;;;;;20.53;57.45;101642.25;4974944;28;20134;-67
2023/09/28 10:16:17;;;;;;;112.82;107.25;;;;;;;20.58;57.31;101651.59;4974378;28;20498;-67
2023/09/28 10:18:47;;;;;;;114.57;108.07;;;;;;;20.60;57.16;101658.44;4986484;28;20032;-67
2023/09/28 10:21:14;;;;;;;116.38;109.80;;;;;;;20.62;57.27;101652.69;4967693;28;20062;-66
2023/09/28 10:23:40;;;;;;;116.03;110.25;;;;;;;20.63;57.16;101651.56;4974949;28;20538;-66
2023/09/28 10:26:12;;;;;;;114.28;109.10;;;;;;;20.65;57.81;101657.59;4974808;28;20031;-67
2023/09/28 10:29:07;;;;;;;113.65;108.32;;;;;;;20.66;57.23;101660.06;4973985;28;20391;-67
2023/09/28 10:31:34;;;;;;;117.57;111.22;;;;;;;20.67;57.09;101656.19;4973998;28;20387;-66
2023/09/28 10:34:01;;;;;;;114.47;108.55;;;;;;;20.68;57.59;101649.56;4974675;28;20030;-65
2023/09/28 10:36:27;;;;;;;114.40;109.30;;;;;;;20.71;57.19;101651.78;4974226;28;20034;-66
2023/09/28 10:39:15;;;;;;;115.22;110.03;;;;;;;20.73;57.82;101657.75;4974663;28;20031;-66
2023/09/28 10:41:49;;;;;;;;;;;;;;;20.75;57.78;101660.22;4974677;28;20035;-66
2023/09/28 10:44:21;;;;;;;110.90;105.70;;;;;;;20.75;57.65;101663.78;4974164;28;19918;-69
2023/09/28 10:46:51;;;;;;;114.72;108.63;;;;;;;20.75;57.48;101661.03;4973111;28;20505;-67
2023/09/28 10:49:26;;;;;;;115.25;109.30;;;;;;;20.78;57.55;101667.06;4973906;28;20117;-67
2023/09/28 10:51:52;;;;;;;114.80;108.88;;;;;;;20.80;57.69;101673.91;4974468;28;20030;-67